createdAt,value
2018-03-15T00:00:27.798Z,23.70
2018-03-15T00:02:55.764Z,20.97
2018-03-15T00:05:23.233Z,23.30
2018-03-15T00:07:50.701Z,21.17
2018-03-15T00:10:18.448Z,21.20
2018-03-15T00:12:46.612Z,19.37
2018-03-15T00:15:14.104Z,20.80
2018-03-15T00:17:42.006Z,19.93
2018-03-15T00:20:09.515Z,20.03
2018-03-15T00:22:37.018Z,21.07
2018-03-15T00:25:05.371Z,20.23
2018-03-15T00:27:32.895Z,19.90
2018-03-15T00:30:00.604Z,22.00
2018-03-15T00:32:28.537Z,22.00
2018-03-15T00:34:56.291Z,23.23
2018-03-15T00:37:23.770Z,23.27
2018-03-15T00:39:51.665Z,22.67
2018-03-15T00:42:19.144Z,23.40
2018-03-15T00:44:46.642Z,22.90
2018-03-15T00:47:14.666Z,23.53
2018-03-15T00:49:42.146Z,22.93
2018-03-15T00:52:09.621Z,24.93
2018-03-15T00:54:37.662Z,27.80
2018-03-15T00:57:05.140Z,24.60
2018-03-15T00:59:32.617Z,23.10
2018-03-15T01:02:00.394Z,22.90
2018-03-15T01:04:28.592Z,22.60
2018-03-15T01:06:56.066Z,22.43
2018-03-15T01:09:23.941Z,22.93
2018-03-15T01:11:51.421Z,24.07
2018-03-15T01:14:19.245Z,22.40
2018-03-15T01:16:47.262Z,22.73
2018-03-15T01:19:14.744Z,22.17
2018-03-15T01:21:42.221Z,22.33
2018-03-15T01:24:10.101Z,22.37
2018-03-15T01:26:37.571Z,20.90
2018-03-15T01:29:05.042Z,21.17
2018-03-15T01:31:32.930Z,20.30
2018-03-15T01:34:00.413Z,23.60
2018-03-15T01:36:28.752Z,22.17
2018-03-15T01:38:56.575Z,23.90
2018-03-15T01:41:24.061Z,23.93
2018-03-15T01:43:51.533Z,22.60
2018-03-15T01:46:19.230Z,21.67
2018-03-15T01:48:47.153Z,21.30
2018-03-15T01:51:14.682Z,26.13
2018-03-15T01:53:42.404Z,23.70
2018-03-15T01:56:09.882Z,22.20
2018-03-15T01:58:37.351Z,22.77
2018-03-15T02:01:05.213Z,23.20
2018-03-15T02:03:32.702Z,24.40
2018-03-15T02:06:00.395Z,22.90
2018-03-15T02:08:29.117Z,19.43
2018-03-15T02:10:56.593Z,21.60
2018-03-15T02:13:24.069Z,22.10
2018-03-15T02:15:52.122Z,21.13
2018-03-15T02:18:19.592Z,24.20
2018-03-15T02:20:47.074Z,22.07
2018-03-15T02:23:15.118Z,22.03
2018-03-15T02:25:42.604Z,23.00
2018-03-15T02:28:10.088Z,23.53
2018-03-15T02:30:38.113Z,21.87
2018-03-15T02:33:05.611Z,21.03
2018-03-15T02:35:33.099Z,21.37
2018-03-15T02:38:00.823Z,23.37
2018-03-15T02:40:28.299Z,23.97
2018-03-15T02:42:55.765Z,22.60
2018-03-15T02:45:23.490Z,21.77
2018-03-15T02:47:50.961Z,23.20
2018-03-15T02:50:18.449Z,21.60
2018-03-15T02:52:46.481Z,23.83
2018-03-15T02:55:14.134Z,23.17
2018-03-15T02:57:41.620Z,22.77
2018-03-15T03:00:09.475Z,23.13
2018-03-15T03:02:36.958Z,24.60
2018-03-15T03:05:04.482Z,22.93
2018-03-15T03:07:32.170Z,24.50
2018-03-15T03:09:59.659Z,26.40
2018-03-15T03:12:27.131Z,24.13
2018-03-15T03:14:55.164Z,26.50
2018-03-15T03:17:23.005Z,24.23
2018-03-15T03:19:50.490Z,21.23
2018-03-15T03:22:18.457Z,25.40
2018-03-15T03:24:45.941Z,23.77
2018-03-15T03:27:13.426Z,24.73
2018-03-15T03:29:41.462Z,25.03
2018-03-15T03:32:08.928Z,22.97
2018-03-15T03:34:36.396Z,22.20
2018-03-15T03:37:04.138Z,20.57
2018-03-15T03:39:31.639Z,22.57
2018-03-15T03:41:59.118Z,21.17
2018-03-15T03:44:26.993Z,22.90
2018-03-15T03:46:54.466Z,20.20
2018-03-15T03:49:21.936Z,21.73
2018-03-15T03:51:49.828Z,21.57
2018-03-15T03:54:17.304Z,24.83
2018-03-15T03:56:44.782Z,23.80
2018-03-15T03:59:12.816Z,22.70
2018-03-15T04:01:40.285Z,22.70
2018-03-15T04:04:07.776Z,22.23
2018-03-15T04:06:35.808Z,20.20
2018-03-15T04:09:03.287Z,18.83
2018-03-15T04:11:30.764Z,18.57
2018-03-15T04:13:58.453Z,17.57
2018-03-15T04:16:25.929Z,18.30
2018-03-15T04:18:53.782Z,19.47
2018-03-15T04:21:21.613Z,17.60
2018-03-15T04:23:49.098Z,18.57
2018-03-15T04:26:16.792Z,17.80
2018-03-15T04:28:45.601Z,17.77
2018-03-15T04:31:13.078Z,18.07
2018-03-15T04:33:40.599Z,17.90
2018-03-15T04:36:08.452Z,18.07
2018-03-15T04:38:35.923Z,18.10
2018-03-15T04:41:03.401Z,16.57
2018-03-15T04:43:32.006Z,19.17
2018-03-15T04:45:59.615Z,17.70
2018-03-15T04:48:27.482Z,17.97
2018-03-15T04:50:55.508Z,19.07
2018-03-15T04:53:23.019Z,18.20
2018-03-15T04:55:50.485Z,20.23
2018-03-15T04:58:18.336Z,19.60
2018-03-15T05:00:46.082Z,19.70
2018-03-15T05:03:13.573Z,18.37
2018-03-15T05:05:41.664Z,18.10
2018-03-15T05:08:09.121Z,19.87
2018-03-15T05:10:36.606Z,20.80
2018-03-15T05:13:04.903Z,23.10
2018-03-15T05:15:32.380Z,23.43
2018-03-15T05:18:00.109Z,26.53
2018-03-15T05:20:29.130Z,25.23
2018-03-15T05:22:56.614Z,27.70
2018-03-15T05:25:24.090Z,30.93
2018-03-15T05:27:51.821Z,31.77
2018-03-15T05:30:19.293Z,34.50
2018-03-15T05:32:46.764Z,37.67
2018-03-15T05:35:14.506Z,39.93
2018-03-15T05:37:41.987Z,38.30
2018-03-15T05:40:09.466Z,38.93
2018-03-15T05:42:37.268Z,43.03
2018-03-15T05:45:04.743Z,40.73
2018-03-15T05:47:32.217Z,40.83
2018-03-15T05:50:00.184Z,41.57
2018-03-15T05:52:28.548Z,39.87
2018-03-15T05:54:56.038Z,42.47
2018-03-15T05:57:23.635Z,37.43
2018-03-15T05:59:51.124Z,41.90
2018-03-15T06:02:18.602Z,41.23
2018-03-15T06:04:46.487Z,41.00
2018-03-15T06:07:13.961Z,41.53
2018-03-15T06:09:41.439Z,42.60
2018-03-15T06:12:09.482Z,40.20
2018-03-15T06:14:36.957Z,42.10
2018-03-15T06:17:04.450Z,43.53
2018-03-15T06:19:32.415Z,46.67
2018-03-15T06:22:00.021Z,42.97
2018-03-15T06:24:27.524Z,42.77
2018-03-15T06:26:55.465Z,42.67
2018-03-15T06:29:22.956Z,42.27
2018-03-15T06:31:50.426Z,46.37
2018-03-15T06:34:18.152Z,74.30
2018-03-15T06:36:45.634Z,44.40
2018-03-15T06:39:13.101Z,45.20
2018-03-15T06:41:41.137Z,46.67
2018-03-15T06:44:08.685Z,43.10
2018-03-15T06:46:36.160Z,39.03
2018-03-15T06:49:04.138Z,42.60
2018-03-15T06:51:31.617Z,40.20
2018-03-15T06:53:59.098Z,39.03
2018-03-15T06:56:27.793Z,38.67
2018-03-15T06:58:55.264Z,41.50
2018-03-15T07:01:22.734Z,37.87
2018-03-15T07:03:50.450Z,40.17
2018-03-15T07:06:17.945Z,37.80
2018-03-15T07:08:45.418Z,38.77
2018-03-15T07:11:13.432Z,38.50
2018-03-15T07:13:40.914Z,36.80
2018-03-15T07:16:08.398Z,37.00
2018-03-15T07:18:36.116Z,36.17
2018-03-15T07:21:03.620Z,35.53
2018-03-15T07:23:32.958Z,32.93
2018-03-15T07:26:00.962Z,33.17
2018-03-15T07:28:29.380Z,33.97
2018-03-15T07:30:56.862Z,31.30
2018-03-15T07:33:24.873Z,33.50
2018-03-15T07:35:52.346Z,33.03
2018-03-15T07:38:19.821Z,33.00
2018-03-15T07:40:47.558Z,33.00
2018-03-15T07:43:15.029Z,31.37
2018-03-15T07:45:42.502Z,30.70
2018-03-15T07:48:10.221Z,32.80
2018-03-15T07:50:37.697Z,32.43
2018-03-15T07:53:05.178Z,30.83
2018-03-15T07:55:33.249Z,32.33
2018-03-15T07:58:00.728Z,26.23
2018-03-15T08:00:28.204Z,27.50
2018-03-15T08:02:56.438Z,26.53
2018-03-15T08:05:23.921Z,26.00
2018-03-15T08:07:51.389Z,24.70
2018-03-15T08:10:19.128Z,23.90
2018-03-15T08:12:46.607Z,25.43
2018-03-15T08:15:14.083Z,25.17
2018-03-15T08:17:42.231Z,23.47
2018-03-15T08:20:09.710Z,22.77
2018-03-15T08:22:37.185Z,23.80
2018-03-15T08:25:07.674Z,23.27
2018-03-15T08:27:35.164Z,26.70
2018-03-15T08:30:02.653Z,25.07
2018-03-15T08:32:30.664Z,24.10
2018-03-15T08:41:41.494Z,26.27
2018-03-15T08:44:08.979Z,23.77
2018-03-15T08:46:36.462Z,24.60
2018-03-15T08:49:04.206Z,26.57
2018-03-15T08:51:31.684Z,23.47
2018-03-15T08:53:59.161Z,21.20
2018-03-15T08:56:26.865Z,21.13
2018-03-15T08:58:54.342Z,21.93
2018-03-15T09:01:21.816Z,21.80
2018-03-15T09:03:49.560Z,21.27
2018-03-15T09:06:17.052Z,21.87
2018-03-15T09:08:44.610Z,21.60
2018-03-15T09:11:12.557Z,21.10
2018-03-15T09:13:40.025Z,19.03
2018-03-15T09:16:07.506Z,19.97
2018-03-15T09:18:35.570Z,18.40
2018-03-15T09:21:03.039Z,19.77
2018-03-15T09:23:30.525Z,19.13
2018-03-15T09:25:58.537Z,19.43
2018-03-15T09:28:26.016Z,18.50
2018-03-15T09:30:53.485Z,17.83
2018-03-15T09:33:21.113Z,18.13
2018-03-15T09:35:48.609Z,19.80
2018-03-15T09:38:16.101Z,18.80
2018-03-15T09:40:43.917Z,19.57
2018-03-15T09:43:11.412Z,21.63
2018-03-15T09:45:38.912Z,18.80
2018-03-15T09:48:06.891Z,19.10
2018-03-15T09:50:34.377Z,18.70
2018-03-15T09:53:01.874Z,18.20
2018-03-15T09:55:29.598Z,18.87
2018-03-15T09:57:57.101Z,18.97
2018-03-15T10:00:24.596Z,19.07
2018-03-15T10:02:52.351Z,19.00
2018-03-15T10:05:19.841Z,18.30
2018-03-15T10:07:47.337Z,19.50
2018-03-15T10:10:14.972Z,16.97
2018-03-15T10:12:42.461Z,17.20
2018-03-15T10:15:09.962Z,17.60
2018-03-15T10:17:37.957Z,17.00
2018-03-15T10:20:05.444Z,16.80
2018-03-15T10:22:33.616Z,15.97
2018-03-15T10:25:01.489Z,15.40
2018-03-15T10:27:29.417Z,17.13
2018-03-15T10:29:56.952Z,15.20
2018-03-15T10:32:24.872Z,15.60
2018-03-15T10:34:57.967Z,15.60
2018-03-15T10:37:25.450Z,16.13
2018-03-15T10:39:53.405Z,14.90
2018-03-15T10:42:20.906Z,16.67
2018-03-15T10:44:48.398Z,16.10
2018-03-15T10:47:16.418Z,14.67
2018-03-15T10:49:44.137Z,14.93
2018-03-15T10:52:11.645Z,14.83
2018-03-15T10:54:39.698Z,15.70
2018-03-15T10:57:07.203Z,16.83
2018-03-15T10:59:34.689Z,15.17
2018-03-15T11:02:06.374Z,14.70
2018-03-15T11:04:34.790Z,15.53
2018-03-15T11:07:05.077Z,15.27
2018-03-15T11:09:33.053Z,15.10
2018-03-15T11:12:00.552Z,14.83
2018-03-15T11:14:28.039Z,15.37
2018-03-15T11:16:56.044Z,15.20
2018-03-15T11:19:23.543Z,14.40
2018-03-15T11:21:51.033Z,14.97
2018-03-15T11:24:18.736Z,15.47
2018-03-15T11:26:46.235Z,15.30
2018-03-15T11:29:14.965Z,15.57
2018-03-15T11:31:42.961Z,14.80
2018-03-15T11:34:10.457Z,14.97
2018-03-15T11:36:37.950Z,14.27
2018-03-15T11:39:05.963Z,15.80
2018-03-15T11:41:33.453Z,14.43
2018-03-15T11:44:00.950Z,14.63
2018-03-15T11:46:28.654Z,13.97
2018-03-15T11:48:56.140Z,15.43
2018-03-15T11:51:23.643Z,14.20
2018-03-15T11:53:51.648Z,14.93
2018-03-15T11:56:19.137Z,14.23
2018-03-15T11:58:46.625Z,13.17
2018-03-15T12:01:14.626Z,12.90
2018-03-15T12:03:42.117Z,12.70
2018-03-15T12:06:09.614Z,12.50
2018-03-15T12:08:37.314Z,13.30
2018-03-15T12:11:04.809Z,13.10
2018-03-15T12:13:32.314Z,12.37
2018-03-15T12:16:00.306Z,13.73
2018-03-15T12:18:27.797Z,12.03
2018-03-15T12:20:55.281Z,11.40
2018-03-15T12:23:22.998Z,11.53
2018-03-15T12:25:50.481Z,11.43
2018-03-15T12:28:17.959Z,12.27
2018-03-15T12:30:46.606Z,13.70
2018-03-15T12:33:14.082Z,13.83
2018-03-15T12:35:41.564Z,12.57
2018-03-15T12:38:09.883Z,13.03
2018-03-15T12:40:37.730Z,12.40
2018-03-15T12:43:05.220Z,11.67
2018-03-15T12:45:32.875Z,11.00
2018-03-15T12:48:00.346Z,11.23
2018-03-15T12:50:27.853Z,11.33
2018-03-15T12:52:55.591Z,11.60
2018-03-15T12:55:23.070Z,11.60
2018-03-15T12:57:50.549Z,11.57
2018-03-15T13:00:18.277Z,12.00
2018-03-15T13:02:45.785Z,11.40
2018-03-15T13:05:13.250Z,9.30
2018-03-15T13:07:41.188Z,12.40
2018-03-15T13:10:08.669Z,11.97
2018-03-15T13:12:36.137Z,12.00
2018-03-15T13:15:03.961Z,11.33
2018-03-15T13:17:31.434Z,9.87
2018-03-15T13:19:58.936Z,10.93
2018-03-15T13:22:26.665Z,11.67
2018-03-15T13:24:54.139Z,11.97
2018-03-15T13:27:23.358Z,10.77
2018-03-15T13:29:51.193Z,10.97
2018-03-15T13:32:19.293Z,10.90
2018-03-15T13:34:46.766Z,10.50
2018-03-15T13:37:14.420Z,11.90
2018-03-15T13:39:41.893Z,11.47
2018-03-15T13:42:09.373Z,12.03
2018-03-15T13:44:37.480Z,11.20
2018-03-15T13:47:05.243Z,10.67
2018-03-15T13:49:32.714Z,12.67
2018-03-15T13:52:00.505Z,12.70
2018-03-15T13:54:27.959Z,10.53
2018-03-15T13:56:55.434Z,11.63
2018-03-15T13:59:23.464Z,12.83
2018-03-15T14:01:50.938Z,10.90
2018-03-15T14:04:18.421Z,12.50
2018-03-15T14:06:46.138Z,11.83
2018-03-15T14:09:13.612Z,13.70
2018-03-15T14:11:41.100Z,12.30
2018-03-15T14:14:09.138Z,11.63
2018-03-15T14:16:36.628Z,12.63
2018-03-15T14:19:04.110Z,15.30
2018-03-15T14:21:31.833Z,12.90
2018-03-15T14:23:59.314Z,13.50
2018-03-15T14:26:26.793Z,12.00
2018-03-15T14:28:54.825Z,11.60
2018-03-15T14:31:22.317Z,12.93
2018-03-15T14:33:50.444Z,13.87
2018-03-15T14:36:18.170Z,13.73
2018-03-15T14:38:45.674Z,13.60
2018-03-15T14:41:13.144Z,15.70
2018-03-15T14:43:40.801Z,14.00
2018-03-15T14:46:08.310Z,13.30
2018-03-15T14:48:35.788Z,14.33
2018-03-15T14:51:03.801Z,13.80
2018-03-15T14:53:31.289Z,15.60
2018-03-15T14:55:58.827Z,15.10
2018-03-15T14:58:26.802Z,16.40
2018-03-15T15:00:54.282Z,14.80
2018-03-15T15:03:21.766Z,14.20
2018-03-15T15:05:49.490Z,16.67
2018-03-15T15:08:16.967Z,14.80
2018-03-15T15:10:44.452Z,14.17
2018-03-15T15:13:12.149Z,13.77
2018-03-15T15:15:39.626Z,13.13
2018-03-15T15:18:07.103Z,14.43
2018-03-15T15:20:34.853Z,13.60
2018-03-15T15:23:02.330Z,13.83
2018-03-15T15:25:29.810Z,14.40
2018-03-15T15:27:57.545Z,15.27
2018-03-15T15:30:25.021Z,13.90
2018-03-15T15:32:52.511Z,14.80
2018-03-15T15:35:21.160Z,14.80
2018-03-15T15:37:48.629Z,15.50
2018-03-15T15:40:16.157Z,13.23
2018-03-15T15:42:43.850Z,14.77
2018-03-15T15:45:11.330Z,14.57
2018-03-15T15:47:38.806Z,15.60
2018-03-15T15:50:06.534Z,15.00
2018-03-15T15:52:34.019Z,14.27
2018-03-15T15:55:01.498Z,16.00
2018-03-15T15:57:29.838Z,14.90
2018-03-15T15:59:57.312Z,14.77
2018-03-15T16:02:24.814Z,16.60
2018-03-15T16:04:52.527Z,15.10
2018-03-15T16:07:20.007Z,14.30
2018-03-15T16:09:47.488Z,15.07
2018-03-15T16:12:15.437Z,16.03
2018-03-15T16:14:42.922Z,15.57
2018-03-15T16:17:10.413Z,14.03
2018-03-15T16:19:38.201Z,18.57
2018-03-15T16:22:05.677Z,16.73
2018-03-15T16:24:33.157Z,16.60
2018-03-15T16:31:35.453Z,16.17
2018-03-15T16:34:03.305Z,16.20
2018-03-15T16:36:31.110Z,18.70
2018-03-15T16:38:58.588Z,15.67
2018-03-15T16:41:26.578Z,16.87
2018-03-15T16:43:54.056Z,18.10
2018-03-15T16:46:21.529Z,15.93
2018-03-15T16:48:49.291Z,17.00
2018-03-15T16:51:16.783Z,17.57
2018-03-15T16:53:44.258Z,16.50
2018-03-15T16:56:11.982Z,17.10
2018-03-15T16:58:39.457Z,17.33
2018-03-15T17:01:07.514Z,16.00
2018-03-15T17:03:35.273Z,17.50
2018-03-15T17:06:02.760Z,17.07
2018-03-15T17:08:30.238Z,17.23
2018-03-15T17:10:58.024Z,16.87
2018-03-15T17:13:25.496Z,16.43
2018-03-15T17:15:53.028Z,18.10
2018-03-15T17:18:20.959Z,19.70
2018-03-15T17:20:48.429Z,19.57
2018-03-15T17:23:15.899Z,17.73
2018-03-15T17:25:43.687Z,18.43
2018-03-15T17:28:11.161Z,19.03
2018-03-15T17:30:38.646Z,19.23
2018-03-15T17:33:06.637Z,25.33
2018-03-15T17:35:34.114Z,18.87
2018-03-15T17:38:01.940Z,18.30
2018-03-15T17:40:29.937Z,19.10
2018-03-15T17:42:57.412Z,18.97
2018-03-15T17:45:24.904Z,20.10
2018-03-15T17:47:52.628Z,19.13
2018-03-15T17:50:20.153Z,19.30
2018-03-15T17:52:47.606Z,18.73
2018-03-15T17:55:15.626Z,26.60
2018-03-15T17:57:43.117Z,19.67
2018-03-15T18:00:10.588Z,20.73
2018-03-15T18:02:38.329Z,19.17
2018-03-15T18:05:05.810Z,21.97
2018-03-15T18:07:33.294Z,21.60
2018-03-15T18:10:01.005Z,21.90
2018-03-15T18:12:28.481Z,21.73
2018-03-15T18:14:55.966Z,20.73
2018-03-15T18:17:23.992Z,21.07
2018-03-15T18:19:51.465Z,21.60
2018-03-15T18:22:18.968Z,22.83
2018-03-15T18:24:46.682Z,22.00
2018-03-15T18:27:14.175Z,20.00
2018-03-15T18:29:41.676Z,23.03
2018-03-15T18:32:09.679Z,21.07
2018-03-15T18:34:37.150Z,21.60
2018-03-15T18:37:04.633Z,22.60
2018-03-15T18:39:34.298Z,22.43
2018-03-15T18:42:01.729Z,22.60
2018-03-15T18:44:29.200Z,22.73
2018-03-15T18:46:57.188Z,22.77
2018-03-15T18:49:24.669Z,21.37
2018-03-15T18:51:52.154Z,26.13
2018-03-15T18:54:20.192Z,24.17
2018-03-15T18:56:47.672Z,30.10
2018-03-15T18:59:15.150Z,24.70
2018-03-15T19:01:43.186Z,24.47
2018-03-15T19:04:10.657Z,25.17
2018-03-15T19:06:38.133Z,22.77
2018-03-15T19:09:06.182Z,22.17
2018-03-15T19:11:33.653Z,21.60
2018-03-15T19:14:01.125Z,22.10
2018-03-15T19:16:28.920Z,22.97
2018-03-15T19:18:56.407Z,24.83
2018-03-15T19:21:23.895Z,22.60
2018-03-15T19:23:51.888Z,21.70
2018-03-15T19:26:19.381Z,22.77
2018-03-15T19:28:46.861Z,22.10
2018-03-15T19:31:14.548Z,22.70
2018-03-15T19:33:42.019Z,23.70
2018-03-15T19:36:09.493Z,23.80
2018-03-15T19:38:37.290Z,22.20
2018-03-15T19:41:05.697Z,23.40
2018-03-15T19:43:33.217Z,21.27
2018-03-15T19:46:01.161Z,20.53
2018-03-15T19:48:28.651Z,20.60
2018-03-15T19:50:56.130Z,23.10
2018-03-15T19:53:24.144Z,21.07
2018-03-15T19:55:51.612Z,19.97
2018-03-15T19:58:19.090Z,21.60
2018-03-15T20:00:47.138Z,21.97
2018-03-15T20:03:14.606Z,21.20
2018-03-15T20:05:42.078Z,22.60
2018-03-15T20:08:09.826Z,21.67
2018-03-15T20:10:37.315Z,20.70
2018-03-15T20:13:04.797Z,22.67
2018-03-15T20:15:38.102Z,20.93
2018-03-15T20:18:05.586Z,21.87
2018-03-15T20:20:33.064Z,20.90
2018-03-15T20:23:06.573Z,20.50
2018-03-15T20:25:34.042Z,23.43
2018-03-15T20:28:07.318Z,25.03
2018-03-15T20:30:34.791Z,25.43
2018-03-15T20:33:09.334Z,23.97
2018-03-15T20:35:36.801Z,21.50
2018-03-15T20:38:04.293Z,20.80
2018-03-15T20:40:37.573Z,20.30
2018-03-15T20:43:05.678Z,23.23
2018-03-15T20:45:39.198Z,19.47
2018-03-15T20:48:12.480Z,20.37
2018-03-15T20:50:40.277Z,20.57
2018-03-15T20:53:07.753Z,18.73
2018-03-15T20:55:35.223Z,23.73
2018-03-15T20:58:02.966Z,19.37
2018-03-15T21:00:30.483Z,17.63
2018-03-15T21:02:57.960Z,18.27
2018-03-15T21:05:25.957Z,19.07
2018-03-15T21:07:53.436Z,18.00
2018-03-15T21:10:20.919Z,19.37
2018-03-15T21:12:48.654Z,17.23
2018-03-15T21:15:16.141Z,18.90
2018-03-15T21:17:43.666Z,19.97
2018-03-15T21:20:11.560Z,18.57
2018-03-15T21:22:39.041Z,19.27
2018-03-15T21:25:06.524Z,18.90
2018-03-15T21:27:34.626Z,22.00
2018-03-15T21:30:02.110Z,18.43
2018-03-15T21:32:29.586Z,22.10
2018-03-15T21:34:57.313Z,21.27
2018-03-15T21:37:24.813Z,18.50
2018-03-15T21:39:52.280Z,20.17
2018-03-15T21:42:20.313Z,20.20
2018-03-15T21:44:49.453Z,22.07
2018-03-15T21:47:16.935Z,21.27
2018-03-15T21:49:45.140Z,21.23
2018-03-15T21:52:12.628Z,22.60
2018-03-15T21:54:40.104Z,24.63
2018-03-15T21:57:07.838Z,24.40
2018-03-15T21:59:35.312Z,22.87
2018-03-15T22:02:02.798Z,22.77
2018-03-15T22:04:31.279Z,21.10
2018-03-15T22:06:58.768Z,23.30
2018-03-15T22:09:26.272Z,21.90
2018-03-15T22:11:54.138Z,25.80
2018-03-15T22:14:21.647Z,20.70
2018-03-15T22:16:49.140Z,23.73
2018-03-15T22:19:17.126Z,22.50
2018-03-15T22:21:44.633Z,22.03
2018-03-15T22:24:12.127Z,21.70
2018-03-15T22:26:39.988Z,23.93
2018-03-15T22:29:07.483Z,20.37
2018-03-15T22:31:34.974Z,23.47
2018-03-15T22:34:03.132Z,22.37
2018-03-15T22:36:30.624Z,23.33
2018-03-15T22:38:58.117Z,23.53
2018-03-15T22:41:25.823Z,20.37
2018-03-15T22:43:53.531Z,20.30
2018-03-15T22:46:21.740Z,18.20
2018-03-15T22:48:49.475Z,17.10
2018-03-15T22:51:16.967Z,19.23
2018-03-15T22:53:44.459Z,18.53
2018-03-15T22:56:12.409Z,18.90
2018-03-15T22:58:39.911Z,18.70
2018-03-15T23:01:07.586Z,18.73
2018-03-15T23:03:35.327Z,17.97
2018-03-15T23:06:02.832Z,15.93
2018-03-15T23:08:30.320Z,17.30
2018-03-15T23:10:57.939Z,16.33
2018-03-15T23:13:25.432Z,17.37
2018-03-15T23:15:52.914Z,18.73
2018-03-15T23:18:21.105Z,17.97
2018-03-15T23:20:48.603Z,18.30
2018-03-15T23:23:16.092Z,16.60
2018-03-15T23:25:44.087Z,17.27
2018-03-15T23:28:11.571Z,19.03
2018-03-15T23:30:39.055Z,17.27
2018-03-15T23:33:06.795Z,20.23
2018-03-15T23:35:34.290Z,21.43
2018-03-15T23:38:01.788Z,21.07
2018-03-15T23:40:29.461Z,20.90
2018-03-15T23:42:56.958Z,17.73
2018-03-15T23:45:24.460Z,20.57
2018-03-15T23:47:52.459Z,17.63
2018-03-15T23:50:19.956Z,18.63
2018-03-15T23:52:47.439Z,18.60
2018-03-15T23:55:15.143Z,17.73
2018-03-15T23:57:42.652Z,17.80
